createdAt,value
2023-02-26T19:11:24.445Z,55.93
2023-02-26T19:12:26.828Z,56.38
2023-02-26T19:13:29.148Z,55.11
2023-02-26T19:14:31.443Z,54.51
2023-02-26T19:15:33.788Z,52.56
2023-02-26T19:16:38.865Z,52.35
2023-02-26T19:17:42.113Z,51.47
2023-02-26T19:18:43.922Z,50.43
2023-02-26T19:19:45.739Z,50.39
2023-02-26T19:20:47.497Z,49.58
2023-02-26T19:21:49.392Z,48.93
2023-02-26T19:22:51.318Z,48.60
2023-02-26T19:23:53.159Z,48.20
2023-02-26T19:24:56.214Z,47.90
2023-02-26T19:25:58.062Z,47.35
2023-02-26T19:26:59.845Z,47.07
2023-02-26T19:28:02.015Z,46.86
2023-02-26T19:29:07.103Z,46.43
2023-02-26T19:30:10.135Z,46.14
2023-02-26T19:31:11.997Z,45.68
2023-02-26T19:32:13.992Z,45.69
2023-02-26T19:33:20.388Z,45.20
2023-02-26T19:34:23.726Z,45.23
2023-02-26T19:35:29.711Z,44.99
2023-02-26T19:36:34.469Z,44.97
2023-02-26T19:37:36.352Z,44.74
2023-02-26T19:38:38.146Z,44.62
2023-02-26T19:39:40.036Z,44.21
2023-02-26T19:40:41.968Z,44.32
2023-02-26T19:41:45.848Z,43.98
2023-02-26T19:42:48.356Z,43.97
2023-02-26T19:43:50.104Z,44.16
2023-02-26T19:44:51.909Z,43.57
2023-02-26T19:45:56.014Z,43.66
2023-02-26T19:46:58.548Z,43.67
2023-02-26T19:48:00.461Z,43.37
2023-02-26T19:49:02.254Z,43.24
2023-02-26T19:50:05.460Z,43.18
2023-02-26T19:51:08.487Z,42.99
2023-02-26T19:52:10.303Z,42.87
2023-02-26T19:53:12.162Z,42.61
2023-02-26T19:54:14.157Z,42.89
2023-02-26T19:55:16.023Z,42.66
2023-02-26T19:56:17.841Z,42.71
2023-02-26T19:57:21.161Z,42.44
2023-02-26T19:58:25.841Z,42.63
2023-02-26T19:59:27.730Z,42.27
2023-02-26T20:00:29.823Z,42.54
2023-02-26T20:01:31.925Z,42.52
2023-02-26T20:02:34.144Z,42.47
2023-02-26T20:03:36.120Z,42.38
2023-02-26T20:04:37.900Z,42.33
2023-02-26T20:05:39.730Z,42.35
2023-02-26T20:06:41.647Z,41.85
2023-02-26T20:07:45.469Z,42.06
2023-02-26T20:08:47.719Z,42.05
2023-02-26T20:09:49.893Z,41.63
2023-02-26T20:10:54.394Z,41.70
2023-02-26T20:11:56.138Z,41.59
2023-02-26T20:12:58.314Z,41.73
2023-02-26T20:14:00.199Z,41.69
2023-02-26T20:15:02.431Z,41.41
2023-02-26T20:16:08.644Z,41.78
2023-02-26T20:17:10.453Z,41.60
2023-02-26T20:18:12.264Z,41.72
2023-02-26T20:19:14.112Z,41.33
2023-02-26T20:20:16.415Z,41.14
2023-02-26T20:21:18.200Z,41.34
2023-02-26T20:22:22.853Z,41.76
2023-02-26T20:23:25.492Z,41.58
2023-02-26T20:24:27.428Z,41.52
2023-02-26T20:25:30.583Z,41.51
2023-02-26T20:26:32.806Z,41.70
2023-02-26T20:27:36.297Z,41.31
2023-02-26T20:28:39.332Z,41.40
2023-02-26T20:29:41.186Z,41.13
2023-02-26T20:30:43.171Z,40.95
2023-02-26T20:31:49.400Z,41.13
2023-02-26T20:32:51.405Z,41.24
2023-02-26T20:33:53.383Z,40.96
2023-02-26T20:34:55.191Z,41.02
2023-02-26T20:35:56.929Z,41.16
2023-02-26T20:36:58.711Z,41.13
2023-02-26T20:38:00.601Z,41.61
2023-02-26T20:39:02.510Z,41.08
2023-02-26T20:40:06.268Z,41.12
2023-02-26T20:41:08.633Z,40.87
2023-02-26T20:42:10.451Z,40.64
2023-02-26T20:43:12.280Z,41.18
2023-02-26T20:44:14.148Z,40.91
2023-02-26T20:45:16.161Z,41.01
2023-02-26T20:46:17.967Z,41.14
2023-02-26T20:47:19.761Z,40.77
2023-02-26T20:48:22.249Z,41.18
2023-02-26T20:49:25.460Z,40.77
2023-02-26T20:50:27.547Z,40.73
2023-02-26T20:51:29.508Z,40.93
2023-02-26T20:52:31.430Z,40.81
2023-02-26T20:53:33.632Z,40.93
2023-02-26T20:54:35.555Z,40.78
2023-02-26T20:55:37.336Z,40.86
2023-02-26T20:56:39.157Z,40.79
2023-02-26T20:57:40.980Z,40.65
2023-02-26T20:58:42.727Z,40.90
2023-02-26T20:59:44.526Z,40.43
2023-02-26T21:00:46.556Z,40.75
2023-02-26T21:01:51.320Z,40.67
2023-02-26T21:02:53.173Z,40.65
2023-02-26T21:03:54.972Z,40.44
2023-02-26T21:04:56.761Z,40.69
2023-02-26T21:05:58.549Z,40.89
2023-02-26T21:07:12.815Z,40.47
2023-02-26T21:08:14.734Z,40.64
2023-02-26T21:09:16.734Z,40.72
2023-02-26T21:10:19.942Z,40.77
2023-02-26T21:11:21.795Z,40.49
2023-02-26T21:12:23.771Z,40.44
2023-02-26T21:13:25.564Z,40.45
2023-02-26T21:14:28.434Z,40.51
2023-02-26T21:15:30.195Z,40.79
2023-02-26T21:16:32.740Z,40.78
2023-02-26T21:17:34.537Z,40.35
2023-02-26T21:18:36.273Z,40.55
2023-02-26T21:19:38.068Z,40.33
2023-02-26T21:20:39.884Z,40.53
2023-02-26T21:21:41.681Z,40.71
2023-02-26T21:22:45.410Z,40.15
2023-02-26T21:23:47.410Z,40.51
2023-02-26T21:24:49.695Z,40.27
2023-02-26T21:25:51.516Z,40.45
2023-02-26T21:26:53.309Z,40.43
2023-02-26T21:27:55.074Z,40.69
2023-02-26T21:28:56.800Z,40.56
2023-02-26T21:29:58.906Z,40.32
2023-02-26T21:31:01.837Z,40.52
2023-02-26T21:32:04.889Z,40.41
2023-02-26T21:33:08.436Z,40.78
2023-02-26T21:34:32.063Z,40.62
2023-02-26T21:35:32.578Z,40.55
2023-02-26T21:36:34.476Z,40.82
2023-02-26T21:37:36.253Z,40.69
2023-02-26T21:38:38.663Z,40.50
2023-02-26T21:39:40.629Z,40.42
2023-02-26T21:40:42.457Z,40.32
2023-02-26T21:41:44.251Z,40.72
2023-02-26T21:42:46.010Z,40.56
2023-02-26T21:43:48.021Z,40.25
2023-02-26T21:44:49.978Z,40.63
2023-02-26T21:45:51.832Z,40.94
2023-02-26T21:46:54.183Z,40.44
2023-02-26T21:47:56.548Z,40.55
2023-02-26T21:48:58.321Z,40.93
2023-02-26T21:50:00.139Z,40.59
2023-02-26T21:51:02.568Z,40.75
2023-02-26T21:52:06.667Z,40.97
2023-02-26T21:53:08.517Z,40.82
2023-02-26T21:54:10.437Z,41.04
2023-02-26T21:55:12.574Z,40.33
2023-02-26T21:56:14.506Z,40.69
2023-02-26T21:57:16.246Z,40.59
2023-02-26T21:58:18.006Z,40.58
2023-02-26T21:59:20.414Z,40.79
2023-02-26T22:00:22.862Z,40.67
2023-02-26T22:01:25.169Z,40.72
2023-02-26T22:02:27.180Z,40.76
2023-02-26T22:03:28.961Z,40.58
2023-02-26T22:04:30.757Z,40.82
2023-02-26T22:05:32.542Z,40.83
2023-02-26T22:06:34.935Z,40.84
2023-02-26T22:07:37.931Z,40.83
2023-02-26T22:08:39.655Z,40.91
2023-02-26T22:09:41.837Z,40.78
2023-02-26T22:10:45.479Z,40.89
2023-02-26T22:11:48.029Z,40.50
2023-02-26T22:12:49.839Z,40.72
2023-02-26T22:13:51.587Z,40.57
2023-02-26T22:14:53.374Z,40.79
2023-02-26T22:15:55.181Z,40.63
2023-02-26T22:16:57.060Z,41.02
2023-02-26T22:17:58.840Z,41.08
2023-02-26T22:19:00.787Z,40.54
2023-02-26T22:20:06.864Z,41.03
2023-02-26T22:21:09.408Z,40.98
2023-02-26T22:22:11.134Z,40.71
2023-02-26T22:23:13.072Z,40.83
2023-02-26T22:24:14.925Z,40.94
2023-02-26T22:25:17.058Z,41.11
2023-02-26T22:26:18.846Z,41.02
2023-02-26T22:27:20.764Z,40.95
2023-02-26T22:28:22.549Z,41.24
2023-02-26T22:29:24.639Z,40.84
2023-02-26T22:30:26.532Z,41.14
2023-02-26T22:31:29.191Z,40.98
2023-02-26T22:32:31.370Z,41.04
2023-02-26T22:33:33.215Z,41.29
2023-02-26T22:34:36.671Z,41.28
2023-02-26T22:35:38.478Z,41.21
2023-02-26T22:36:40.258Z,41.21
2023-02-26T22:37:42.829Z,41.38
2023-02-26T22:38:44.579Z,41.17
2023-02-26T22:39:46.306Z,41.27
2023-02-26T22:40:48.055Z,41.31
2023-02-26T22:41:49.831Z,41.20
2023-02-26T22:42:51.608Z,41.65
2023-02-26T22:43:54.123Z,41.39
2023-02-26T22:44:56.017Z,41.49
2023-02-26T22:45:57.823Z,41.12
2023-02-26T22:46:59.658Z,41.49
2023-02-26T22:48:01.514Z,41.65
2023-02-26T22:49:03.655Z,41.41
2023-02-26T22:50:06.143Z,41.49
2023-02-26T22:51:07.899Z,41.65
2023-02-26T22:52:10.549Z,41.66
2023-02-26T22:53:12.364Z,41.46
2023-02-26T22:54:14.168Z,41.63
2023-02-26T22:55:16.090Z,41.28
2023-02-26T22:56:17.900Z,41.42
2023-02-26T22:57:20.289Z,41.60
2023-02-26T22:58:22.866Z,41.85
2023-02-26T22:59:25.069Z,41.66
2023-02-26T23:00:27.801Z,41.71
2023-02-26T23:01:29.933Z,41.77
2023-02-26T23:02:31.703Z,41.93
2023-02-26T23:03:34.141Z,41.80
2023-02-26T23:04:36.107Z,41.52
2023-02-26T23:05:37.870Z,41.95
2023-02-26T23:06:39.681Z,41.90
2023-02-26T23:07:42.531Z,42.03
2023-02-26T23:08:44.253Z,41.79
2023-02-26T23:09:46.032Z,41.93
2023-02-26T23:10:47.941Z,42.12
2023-02-26T23:11:49.987Z,42.07
2023-02-26T23:12:51.835Z,42.21
2023-02-26T23:13:53.720Z,42.17
2023-02-26T23:14:55.615Z,42.33
2023-02-26T23:15:58.272Z,42.24
2023-02-26T23:17:00.300Z,42.25
2023-02-26T23:18:02.079Z,42.40
2023-02-26T23:19:04.519Z,42.21
2023-02-26T23:20:10.097Z,42.35
2023-02-26T23:21:12.288Z,42.32
2023-02-26T23:22:14.070Z,42.41
2023-02-26T23:23:16.910Z,42.15
2023-02-26T23:24:18.706Z,42.57
2023-02-26T23:25:20.435Z,42.49
2023-02-26T23:26:22.411Z,42.60
2023-02-26T23:27:24.155Z,42.61
2023-02-26T23:28:26.093Z,42.44
2023-02-26T23:29:27.871Z,42.81
2023-02-26T23:30:29.719Z,42.73
2023-02-26T23:31:31.932Z,42.58
2023-02-26T23:32:33.805Z,42.88
2023-02-26T23:33:35.634Z,42.83
2023-02-26T23:34:37.467Z,42.97
2023-02-26T23:35:39.596Z,42.95
2023-02-26T23:36:42.269Z,42.54
2023-02-26T23:37:44.101Z,43.01
2023-02-26T23:38:45.931Z,42.80
2023-02-26T23:39:49.011Z,43.17
2023-02-26T23:40:50.939Z,43.04
2023-02-26T23:41:52.838Z,43.01
2023-02-26T23:42:54.613Z,42.92
2023-02-26T23:43:56.508Z,43.08
2023-02-26T23:44:58.279Z,42.99
2023-02-26T23:46:00.191Z,43.03
2023-02-26T23:47:02.023Z,43.16
2023-02-26T23:48:03.991Z,43.23
2023-02-26T23:49:05.803Z,43.21
2023-02-26T23:50:08.078Z,43.22
2023-02-26T23:51:09.870Z,43.34
2023-02-26T23:52:11.608Z,43.09
2023-02-26T23:53:13.375Z,43.43
2023-02-26T23:54:15.385Z,43.43
2023-02-26T23:55:17.736Z,43.07
2023-02-26T23:56:19.554Z,43.21
2023-02-26T23:57:21.313Z,43.48
2023-02-26T23:58:28.784Z,43.48
2023-02-26T23:59:30.620Z,43.49
